HISTORICAL SENSOR DATA

Sensor Data Report

DB LIVE
CURRENT TIME--:--:--
DEVICE NETWORK Gateway Status
13 ESP · realtime ~1s · history 60s
Weather WS-MOD-01
ONLINE
Actuator ACT-MOD-01
OFFLINE
Mainboard L3 MB-L3-01
ONLINE
Mainboard L5 MB-L5-01
ONLINE
Remote AC AC-REMOTE-01
ONLINE
PZEM L3-01 PWR-L3-01
OFFLINE
PZEM L3-02 PWR-L3-02
OFFLINE
PZEM L3-03 PWR-L3-03
OFFLINE
PZEM L3-04 PWR-L3-04
OFFLINE
PZEM L5-01 PWR-L5-01
ONLINE
PZEM L5-02 PWR-L5-02
ONLINE
PZEM L5-03 PWR-L5-03
OFFLINE
PZEM L5-04 PWR-L5-04
OFFLINE
REPORT FILTER

Periode & Sensor

DATABASE HISTORY
RESET
QUICK RANGE Hari ini 7 hari 30 hari
PERIODE09 Aug 2026sampai 07 Sep 2026
TOTAL DATA89,946sensor readings
MINIMUM-0.50sesuai filter
AVERAGE72.52sesuai filter
MAXIMUM32,564.20sesuai filter
REPORT RESULT

Data Sensor

09/08/2026 — 07/09/2026 EXPORT CSV
NOTANGGALWAKTUDEVICECHANNELSENSORVALUEUNIT
101 07/09/2026 05:26:00 WS-MOD-01Weather Station Module WS-PRES Tekanan Udara 911.00 hPa
102 07/09/2026 05:26:00 PWR-L5-01Power Meter L5 PZEM 01 PZEM-L5-01-POWER PZEM L5-01 Active Power 10.50 W
103 07/09/2026 05:26:00 MB-L3-01Mainboard Lantai 3 L3-AI-04 Analog Input 4 3.12 V
104 07/09/2026 05:26:00 MB-L5-01Mainboard Lantai 5 L5-AI-06 Analog Input 6 3.05 V
105 07/09/2026 05:26:00 MB-L5-01Mainboard Lantai 5 L5-SHT-02-T SHT20 2 Temperature 28.10 °C
106 07/09/2026 05:26:00 PWR-L5-02Power Meter L5 PZEM 02 PZEM-L5-02-FREQ PZEM L5-02 Frequency 50.00 Hz
107 07/09/2026 05:26:00 WS-MOD-01Weather Station Module WS-TEMP Suhu Udara 17.90 °C
108 07/09/2026 05:26:00 MB-L5-01Mainboard Lantai 5 L5-RAD-02 Radiation 2 1.00 W/m²
109 07/09/2026 05:26:00 PWR-L5-01Power Meter L5 PZEM 01 PZEM-L5-01-CURR PZEM L5-01 Current 0.12 A
110 07/09/2026 05:26:00 PWR-L5-02Power Meter L5 PZEM 02 PZEM-L5-02-POWER PZEM L5-02 Active Power 0.00 W
111 07/09/2026 05:26:00 MB-L3-01Mainboard Lantai 3 L3-AI-05 Analog Input 5 3.12 V
112 07/09/2026 05:26:00 MB-L5-01Mainboard Lantai 5 L5-LUX-06 Illuminance / LUX 6 0.20 lux
113 07/09/2026 05:26:00 MB-L5-01Mainboard Lantai 5 L5-ST-01 Surface Temperature 1 22.30 °C
114 07/09/2026 05:26:00 PWR-L5-01Power Meter L5 PZEM 01 PZEM-L5-01-VOLT PZEM L5-01 Voltage 224.30 V
115 07/09/2026 05:26:00 PWR-L5-02Power Meter L5 PZEM 02 PZEM-L5-02-VOLT PZEM L5-02 Voltage 224.10 V
116 07/09/2026 05:26:00 MB-L5-01Mainboard Lantai 5 L5-ST-02 Surface Temperature 2 21.60 °C
117 07/09/2026 05:26:00 MB-L5-01Mainboard Lantai 5 L5-SHT-01-RH SHT20 1 Humidity 47.60 %RH
118 07/09/2026 05:26:00 AC-REMOTE-01Remote AC AC-SETPOINT AC Set Temperature 23.00 °C
119 07/09/2026 05:26:00 MB-L3-01Mainboard Lantai 3 L3-LUX-04 Illuminance / LUX 4 0.20 lux
120 07/09/2026 05:26:00 MB-L3-01Mainboard Lantai 3 L3-SHT-01-RH SHT20 1 Humidity 47.30 %RH
121 07/09/2026 05:26:00 MB-L3-01Mainboard Lantai 3 L3-LUX-06 Illuminance / LUX 6 0.50 lux
122 07/09/2026 05:26:00 MB-L3-01Mainboard Lantai 3 L3-SHT-02-T SHT20 2 Temperature 28.00 °C
123 07/09/2026 05:26:00 AC-REMOTE-01Remote AC AC-FAN AC Fan Speed 0.00 code
124 07/09/2026 05:26:00 MB-L3-01Mainboard Lantai 3 L3-SHT-02-RH SHT20 2 Humidity 46.60 %RH
125 07/09/2026 05:26:00 MB-L3-01Mainboard Lantai 3 L3-AI-06 Analog Input 6 3.12 V
126 07/09/2026 05:26:00 MB-L5-01Mainboard Lantai 5 L5-SHT-03-RH SHT20 3 Humidity 47.20 %RH
127 07/09/2026 05:26:00 MB-L5-01Mainboard Lantai 5 L5-LUX-04 Illuminance / LUX 4 0.10 lux
128 07/09/2026 05:26:00 MB-L5-01Mainboard Lantai 5 L5-HFT-01 Heat Flow Temperature 1 22.10 °C
129 07/09/2026 05:26:00 WS-MOD-01Weather Station Module WS-DIR Arah Angin 53.90 °
130 07/09/2026 05:26:00 MB-L5-01Mainboard Lantai 5 L5-LUX-03 Illuminance / LUX 3 0.30 lux
131 07/09/2026 05:26:00 MB-L3-01Mainboard Lantai 3 L3-LUX-01 Illuminance / LUX 1 0.30 lux
132 07/09/2026 05:26:00 MB-L5-01Mainboard Lantai 5 L5-RAD-01 Radiation 1 1.00 W/m²
133 07/09/2026 05:26:00 MB-L5-01Mainboard Lantai 5 L5-BGT-01 Black Globe Temperature 1 25.90 °C
134 07/09/2026 05:26:00 MB-L3-01Mainboard Lantai 3 L3-LUX-02 Illuminance / LUX 2 0.30 lux
135 07/09/2026 05:26:00 MB-L5-01Mainboard Lantai 5 L5-AI-01 Analog Input 1 3.05 V
136 07/09/2026 05:26:00 MB-L5-01Mainboard Lantai 5 L5-LUX-01 Illuminance / LUX 1 0.10 lux
137 07/09/2026 05:25:00 AC-REMOTE-01Remote AC AC-POWER AC Power State 1.00 state
138 07/09/2026 05:25:00 MB-L3-01Mainboard Lantai 3 L3-AI-02 Analog Input 2 3.12 V
139 07/09/2026 05:25:00 PWR-L5-01Power Meter L5 PZEM 01 PZEM-L5-01-PF PZEM L5-01 Power Factor 0.38
140 07/09/2026 05:25:00 AC-REMOTE-01Remote AC AC-MODE AC Operating Mode 1.00 code
141 07/09/2026 05:25:00 MB-L5-01Mainboard Lantai 5 L5-AI-04 Analog Input 4 3.05 V
142 07/09/2026 05:25:00 MB-L3-01Mainboard Lantai 3 L3-SHT-01-T SHT20 1 Temperature 27.80 °C
143 07/09/2026 05:25:00 MB-L3-01Mainboard Lantai 3 L3-LUX-05 Illuminance / LUX 5 0.60 lux
144 07/09/2026 05:25:00 MB-L3-01Mainboard Lantai 3 L3-SHT-03-RH SHT20 3 Humidity 46.50 %RH
145 07/09/2026 05:25:00 PWR-L5-01Power Meter L5 PZEM 01 PZEM-L5-01-FREQ PZEM L5-01 Frequency 50.00 Hz
146 07/09/2026 05:25:00 MB-L3-01Mainboard Lantai 3 L3-AI-03 Analog Input 3 3.12 V
147 07/09/2026 05:25:00 MB-L3-01Mainboard Lantai 3 L3-RAD-02 Radiation 2 0.00 W/m²
148 07/09/2026 05:25:00 PWR-L5-01Power Meter L5 PZEM 01 PZEM-L5-01-ENERGY PZEM L5-01 Energy 0.12 kWh
149 07/09/2026 05:25:00 MB-L5-01Mainboard Lantai 5 L5-LUX-02 Illuminance / LUX 2 0.50 lux
150 07/09/2026 05:25:00 MB-L5-01Mainboard Lantai 5 L5-SHT-02-RH SHT20 2 Humidity 46.50 %RH
151 07/09/2026 05:25:00 MB-L5-01Mainboard Lantai 5 L5-AI-05 Analog Input 5 3.05 V
152 07/09/2026 05:25:00 MB-L3-01Mainboard Lantai 3 L3-LUX-03 Illuminance / LUX 3 0.30 lux
153 07/09/2026 05:25:00 WS-MOD-01Weather Station Module WS-PRES Tekanan Udara 911.00 hPa
154 07/09/2026 05:25:00 PWR-L5-01Power Meter L5 PZEM 01 PZEM-L5-01-POWER PZEM L5-01 Active Power 10.50 W
155 07/09/2026 05:25:00 MB-L3-01Mainboard Lantai 3 L3-AI-04 Analog Input 4 3.12 V
156 07/09/2026 05:25:00 MB-L5-01Mainboard Lantai 5 L5-AI-06 Analog Input 6 3.05 V
157 07/09/2026 05:25:00 MB-L5-01Mainboard Lantai 5 L5-SHT-02-T SHT20 2 Temperature 28.20 °C
158 07/09/2026 05:25:00 PWR-L5-02Power Meter L5 PZEM 02 PZEM-L5-02-FREQ PZEM L5-02 Frequency 50.00 Hz
159 07/09/2026 05:25:00 WS-MOD-01Weather Station Module WS-TEMP Suhu Udara 18.00 °C
160 07/09/2026 05:25:00 MB-L5-01Mainboard Lantai 5 L5-RAD-02 Radiation 2 1.00 W/m²
161 07/09/2026 05:25:00 PWR-L5-01Power Meter L5 PZEM 01 PZEM-L5-01-CURR PZEM L5-01 Current 0.12 A
162 07/09/2026 05:25:00 PWR-L5-02Power Meter L5 PZEM 02 PZEM-L5-02-POWER PZEM L5-02 Active Power 0.00 W
163 07/09/2026 05:25:00 MB-L3-01Mainboard Lantai 3 L3-AI-05 Analog Input 5 3.12 V
164 07/09/2026 05:25:00 MB-L5-01Mainboard Lantai 5 L5-LUX-06 Illuminance / LUX 6 0.20 lux
165 07/09/2026 05:25:00 MB-L5-01Mainboard Lantai 5 L5-ST-01 Surface Temperature 1 22.30 °C
166 07/09/2026 05:25:00 PWR-L5-01Power Meter L5 PZEM 01 PZEM-L5-01-VOLT PZEM L5-01 Voltage 224.40 V
167 07/09/2026 05:25:00 PWR-L5-02Power Meter L5 PZEM 02 PZEM-L5-02-VOLT PZEM L5-02 Voltage 224.20 V
168 07/09/2026 05:25:00 MB-L5-01Mainboard Lantai 5 L5-ST-02 Surface Temperature 2 21.60 °C
169 07/09/2026 05:25:00 MB-L5-01Mainboard Lantai 5 L5-SHT-01-RH SHT20 1 Humidity 47.50 %RH
170 07/09/2026 05:25:00 AC-REMOTE-01Remote AC AC-SETPOINT AC Set Temperature 23.00 °C
171 07/09/2026 05:25:00 MB-L3-01Mainboard Lantai 3 L3-LUX-04 Illuminance / LUX 4 0.20 lux
172 07/09/2026 05:25:00 MB-L3-01Mainboard Lantai 3 L3-SHT-01-RH SHT20 1 Humidity 47.40 %RH
173 07/09/2026 05:25:00 MB-L3-01Mainboard Lantai 3 L3-LUX-06 Illuminance / LUX 6 0.50 lux
174 07/09/2026 05:25:00 MB-L3-01Mainboard Lantai 3 L3-SHT-02-T SHT20 2 Temperature 28.00 °C
175 07/09/2026 05:25:00 AC-REMOTE-01Remote AC AC-FAN AC Fan Speed 0.00 code
176 07/09/2026 05:25:00 MB-L3-01Mainboard Lantai 3 L3-SHT-02-RH SHT20 2 Humidity 46.50 %RH
177 07/09/2026 05:25:00 MB-L3-01Mainboard Lantai 3 L3-AI-06 Analog Input 6 3.12 V
178 07/09/2026 05:25:00 MB-L5-01Mainboard Lantai 5 L5-SHT-03-RH SHT20 3 Humidity 47.00 %RH
179 07/09/2026 05:25:00 MB-L5-01Mainboard Lantai 5 L5-LUX-04 Illuminance / LUX 4 0.10 lux
180 07/09/2026 05:25:00 MB-L5-01Mainboard Lantai 5 L5-HFT-01 Heat Flow Temperature 1 22.20 °C
181 07/09/2026 05:25:00 WS-MOD-01Weather Station Module WS-DIR Arah Angin 76.10 °
182 07/09/2026 05:25:00 MB-L5-01Mainboard Lantai 5 L5-LUX-03 Illuminance / LUX 3 0.30 lux
183 07/09/2026 05:25:00 MB-L3-01Mainboard Lantai 3 L3-LUX-01 Illuminance / LUX 1 0.20 lux
184 07/09/2026 05:25:00 MB-L5-01Mainboard Lantai 5 L5-RAD-01 Radiation 1 1.00 W/m²
185 07/09/2026 05:25:00 MB-L5-01Mainboard Lantai 5 L5-BGT-01 Black Globe Temperature 1 25.90 °C
186 07/09/2026 05:25:00 MB-L3-01Mainboard Lantai 3 L3-LUX-02 Illuminance / LUX 2 0.30 lux
187 07/09/2026 05:25:00 MB-L5-01Mainboard Lantai 5 L5-AI-01 Analog Input 1 3.05 V
188 07/09/2026 05:25:00 MB-L5-01Mainboard Lantai 5 L5-LUX-01 Illuminance / LUX 1 0.10 lux
189 07/09/2026 05:25:00 MB-L5-01Mainboard Lantai 5 L5-HFT-02 Heat Flow Temperature 2 21.30 °C
190 07/09/2026 05:25:00 MB-L5-01Mainboard Lantai 5 L5-BGT-02 Black Globe Temperature 2 25.80 °C
191 07/09/2026 05:25:00 PWR-L5-02Power Meter L5 PZEM 02 PZEM-L5-02-PF PZEM L5-02 Power Factor 0.00
192 07/09/2026 05:25:00 WS-MOD-01Weather Station Module WS-RH Kelembapan Udara 83.00 %RH
193 07/09/2026 05:25:00 MB-L5-01Mainboard Lantai 5 L5-AI-02 Analog Input 2 3.05 V
194 07/09/2026 05:25:00 MB-L3-01Mainboard Lantai 3 L3-AI-01 Analog Input 1 3.12 V
195 07/09/2026 05:25:00 MB-L3-01Mainboard Lantai 3 L3-SHT-03-T SHT20 3 Temperature 28.20 °C
196 07/09/2026 05:25:00 WS-MOD-01Weather Station Module WS-WIND Kecepatan Angin 6.08 m/s
197 07/09/2026 05:25:00 PWR-L5-02Power Meter L5 PZEM 02 PZEM-L5-02-ENERGY PZEM L5-02 Energy 0.04 kWh
198 07/09/2026 05:25:00 MB-L3-01Mainboard Lantai 3 L3-RAD-01 Radiation 1 1.00 W/m²
199 07/09/2026 05:25:00 MB-L5-01Mainboard Lantai 5 L5-BGT-03 Black Globe Temperature 3 25.60 °C
200 07/09/2026 05:25:00 MB-L5-01Mainboard Lantai 5 L5-SHT-01-T SHT20 1 Temperature 27.80 °C
Menampilkan maksimal 100 data per halaman